Time;durP1;ratioP1;P1;durP2;ratioP2;P2;SDS_P1;SDS_P2;PMS_P1;PMS_P2;Temp;Humidity;BMP_temperature;BMP_pressure;BME280_temperature;BME280_humidity;BME280_pressure;Samples;Min_cycle;Max_cycle;Signal;HPM_P1;HPM_P2
2024/03/10 00:02:26;;;;;;;230.27;67.18;;;;;;;;;;5033058;28;20278;-44
2024/03/10 00:04:52;;;;;;;231.40;70.85;;;;;;;;;;5033057;28;20180;-44
2024/03/10 00:07:18;;;;;;;227.00;65.78;;;;;;;;;;5032744;28;20172;-45
2024/03/10 00:09:45;;;;;;;231.10;71.63;;;;;;;;;;5033332;28;20190;-45
2024/03/10 00:12:11;;;;;;;230.27;67.18;;;;;;;;;;5032885;28;20416;-45
2024/03/10 00:14:37;;;;;;;226.73;66.85;;;;;;;;;;5032174;28;20205;-45
2024/03/10 00:17:03;;;;;;;225.98;63.67;;;;;;;;;;5032427;28;20174;-45
2024/03/10 00:19:30;;;;;;;227.38;65.55;;;;;;;;;;5032865;28;20651;-45
2024/03/10 00:21:56;;;;;;;224.32;63.75;;;;;;;;;;5032651;28;20207;-45
2024/03/10 00:24:22;;;;;;;226.97;65.83;;;;;;;;;;5032401;28;20241;-45
2024/03/10 00:26:49;;;;;;;227.97;65.93;;;;;;;;;;5032294;28;20913;-45
2024/03/10 00:29:15;;;;;;;226.98;65.53;;;;;;;;;;5032810;28;20924;-45
2024/03/10 00:31:41;;;;;;;228.90;65.53;;;;;;;;;;5032644;28;20189;-45
2024/03/10 00:34:07;;;;;;;228.57;65.97;;;;;;;;;;5032502;28;20202;-45
2024/03/10 00:36:33;;;;;;;227.68;66.63;;;;;;;;;;5032321;28;20405;-45
2024/03/10 00:38:59;;;;;;;229.77;68.10;;;;;;;;;;5032623;28;20268;-44
2024/03/10 00:41:25;;;;;;;227.00;65.10;;;;;;;;;;5032739;28;20410;-45
2024/03/10 00:43:51;;;;;;;229.30;68.80;;;;;;;;;;5032085;28;20500;-46
2024/03/10 00:46:17;;;;;;;225.67;65.30;;;;;;;;;;5032027;28;20440;-44
2024/03/10 00:48:43;;;;;;;227.60;67.40;;;;;;;;;;5032097;28;20503;-44
2024/03/10 00:51:09;;;;;;;227.53;64.97;;;;;;;;;;5032252;28;20322;-45
2024/03/10 00:53:35;;;;;;;227.77;65.60;;;;;;;;;;5031825;28;20432;-44
2024/03/10 00:59:04;;;;;;;225.93;65.20;;;;;;;;;;5030759;28;20415;-44
2024/03/10 01:01:30;;;;;;;224.17;62.90;;;;;;;;;;5032261;28;20201;-45
2024/03/10 01:03:56;;;;;;;228.70;67.53;;;;;;;;;;5032297;28;20453;-45
2024/03/10 01:06:23;;;;;;;226.37;64.37;;;;;;;;;;5032196;28;20417;-45
2024/03/10 01:08:49;;;;;;;226.05;64.95;;;;;;;;;;5031758;28;20413;-45
2024/03/10 01:11:15;;;;;;;226.95;66.05;;;;;;;;;;5032135;28;20181;-45
2024/03/10 01:13:43;;;;;;;226.55;65.47;;;;;;;;;;5030574;28;20206;-45
2024/03/10 01:16:09;;;;;;;225.52;64.75;;;;;;;;;;5031659;28;20708;-44
2024/03/10 01:18:37;;;;;;;226.88;65.75;;;;;;;;;;5031402;28;20682;-45
2024/03/10 01:21:03;;;;;;;224.85;62.63;;;;;;;;;;5031905;28;20163;-44
2024/03/10 01:23:29;;;;;;;227.07;64.05;;;;;;;;;;5031727;28;20683;-45
2024/03/10 01:25:55;;;;;;;228.57;66.93;;;;;;;;;;5031821;28;20205;-45
2024/03/10 01:28:21;;;;;;;228.27;68.20;;;;;;;;;;5031772;28;20214;-44
2024/03/10 01:30:47;;;;;;;226.43;66.43;;;;;;;;;;5031636;28;20409;-44
2024/03/10 01:33:13;;;;;;;228.67;67.07;;;;;;;;;;5031386;28;20570;-45
2024/03/10 01:35:42;;;;;;;230.47;68.77;;;;;;;;;;5028955;28;20461;-45
2024/03/10 01:38:08;;;;;;;227.18;65.70;;;;;;;;;;5031127;28;20500;-45
2024/03/10 01:40:34;;;;;;;227.70;65.47;;;;;;;;;;5031451;28;20270;-45
2024/03/10 01:43:00;;;;;;;226.77;64.33;;;;;;;;;;5031025;28;20438;-45
2024/03/10 01:45:26;;;;;;;225.27;62.67;;;;;;;;;;5033767;28;20417;-45
2024/03/10 01:47:52;;;;;;;226.20;65.32;;;;;;;;;;5031141;28;20421;-45
2024/03/10 01:50:18;;;;;;;227.50;64.38;;;;;;;;;;5030606;28;20175;-45
2024/03/10 01:52:47;;;;;;;228.20;63.45;;;;;;;;;;5030986;28;20293;-46
2024/03/10 01:55:13;;;;;;;232.40;68.22;;;;;;;;;;5030993;28;20198;-45
2024/03/10 01:57:39;;;;;;;227.98;62.33;;;;;;;;;;5030965;28;20167;-45
2024/03/10 02:00:06;;;;;;;229.77;65.47;;;;;;;;;;5030771;28;20182;-45
2024/03/10 02:02:32;;;;;;;226.90;62.72;;;;;;;;;;5030107;28;20198;-45
2024/03/10 02:05:01;;;;;;;227.00;62.58;;;;;;;;;;5030164;28;20182;-45
2024/03/10 02:07:27;;;;;;;228.15;64.97;;;;;;;;;;5030648;28;20553;-45
2024/03/10 02:09:53;;;;;;;231.13;65.95;;;;;;;;;;5030792;28;20183;-45
2024/03/10 02:12:20;;;;;;;228.07;63.83;;;;;;;;;;5030889;28;20241;-44
2024/03/10 02:15:01;;;;;;;233.52;67.20;;;;;;;;;;5029842;28;20233;-45
2024/03/10 02:17:28;;;;;;;229.05;63.83;;;;;;;;;;5024858;28;20186;-45
2024/03/10 02:19:57;;;;;;;229.95;64.65;;;;;;;;;;5030690;28;20601;-45
2024/03/10 02:22:24;;;;;;;230.40;66.18;;;;;;;;;;5025334;28;20163;-45
2024/03/10 02:24:50;;;;;;;230.98;66.32;;;;;;;;;;5030664;28;20191;-45
2024/03/10 02:27:17;;;;;;;229.82;65.45;;;;;;;;;;5030154;28;20453;-45
2024/03/10 02:30:00;;;;;;;229.57;64.72;;;;;;;;;;5030514;28;20553;-45
2024/03/10 02:48:56;;;;;;;227.40;62.40;;;;;;;;;;5030231;28;20856;-45
2024/03/10 02:51:23;;;;;;;229.07;64.77;;;;;;;;;;5030825;28;20178;-46
2024/03/10 02:53:49;;;;;;;228.25;64.20;;;;;;;;;;5030163;28;20451;-45
2024/03/10 02:56:15;;;;;;;228.52;63.53;;;;;;;;;;5030061;28;20182;-45
2024/03/10 02:58:41;;;;;;;227.20;62.80;;;;;;;;;;5030253;28;20193;-45
2024/03/10 03:01:10;;;;;;;224.73;61.37;;;;;;;;;;5031754;28;20427;-45
2024/03/10 03:03:36;;;;;;;228.00;63.50;;;;;;;;;;5034230;28;20483;-45
2024/03/10 03:06:02;;;;;;;229.37;66.83;;;;;;;;;;5033884;28;20198;-45
2024/03/10 03:08:28;;;;;;;224.43;60.60;;;;;;;;;;5034818;28;20449;-45
2024/03/10 03:10:54;;;;;;;227.93;62.63;;;;;;;;;;5035196;28;20178;-44
2024/03/10 03:13:20;;;;;;;229.90;64.72;;;;;;;;;;5033865;28;20957;-44
2024/03/10 03:15:46;;;;;;;224.13;59.57;;;;;;;;;;5033684;28;20259;-44
2024/03/10 03:18:12;;;;;;;228.33;62.83;;;;;;;;;;5033911;28;20930;-44
2024/03/10 03:20:39;;;;;;;226.20;62.20;;;;;;;;;;5034171;28;20818;-44
2024/03/10 03:23:05;;;;;;;231.32;64.03;;;;;;;;;;5033887;28;20452;-45
2024/03/10 03:25:31;;;;;;;229.93;63.53;;;;;;;;;;5033617;28;20199;-45
2024/03/10 03:27:57;;;;;;;230.17;63.80;;;;;;;;;;5033788;28;20682;-44
2024/03/10 03:30:23;;;;;;;227.43;61.67;;;;;;;;;;5033801;28;20407;-44
2024/03/10 03:32:49;;;;;;;228.15;61.78;;;;;;;;;;5033902;28;20201;-44
2024/03/10 03:35:16;;;;;;;230.30;66.72;;;;;;;;;;5033217;28;20782;-44
2024/03/10 03:37:42;;;;;;;227.10;62.85;;;;;;;;;;5034233;28;20174;-45
2024/03/10 03:40:08;;;;;;;229.20;63.88;;;;;;;;;;5033514;28;20257;-44
2024/03/10 03:42:37;;;;;;;229.05;63.67;;;;;;;;;;5033060;28;20271;-44
2024/03/10 03:45:04;;;;;;;227.68;63.10;;;;;;;;;;5033708;28;20287;-44
2024/03/10 03:47:30;;;;;;;225.32;60.70;;;;;;;;;;5033734;28;20171;-45
2024/03/10 03:49:56;;;;;;;228.63;62.92;;;;;;;;;;5033667;28;20234;-44
2024/03/10 03:52:22;;;;;;;228.95;62.15;;;;;;;;;;5033570;28;20267;-44
2024/03/10 03:54:48;;;;;;;229.73;64.22;;;;;;;;;;5033328;28;20243;-44
2024/03/10 03:57:14;;;;;;;226.98;61.55;;;;;;;;;;5033256;28;20177;-45
2024/03/10 03:59:41;;;;;;;221.98;60.03;;;;;;;;;;5033706;28;20188;-44
2024/03/10 04:02:07;;;;;;;225.40;62.50;;;;;;;;;;5033311;28;20207;-44
2024/03/10 04:04:33;;;;;;;224.07;63.80;;;;;;;;;;5033829;28;20207;-45
2024/03/10 04:06:59;;;;;;;226.48;63.28;;;;;;;;;;5033061;28;20750;-44
2024/03/10 04:09:26;;;;;;;225.93;61.67;;;;;;;;;;5033349;28;20179;-44
2024/03/10 04:11:52;;;;;;;228.57;63.85;;;;;;;;;;5033277;28;20898;-44
2024/03/10 04:14:19;;;;;;;226.68;62.13;;;;;;;;;;5031813;28;20209;-44
2024/03/10 04:16:45;;;;;;;228.77;64.28;;;;;;;;;;5032565;28;20176;-44
2024/03/10 04:19:11;;;;;;;227.60;61.17;;;;;;;;;;5033035;28;20176;-44
2024/03/10 04:21:37;;;;;;;228.10;61.85;;;;;;;;;;5032953;28;20828;-44
2024/03/10 04:24:09;;;;;;;230.60;63.92;;;;;;;;;;5031464;28;20683;-44
2024/03/10 04:26:35;;;;;;;224.60;60.60;;;;;;;;;;5032382;28;20703;-44
2024/03/10 04:29:01;;;;;;;226.57;60.53;;;;;;;;;;5032796;28;20181;-44
2024/03/10 04:31:28;;;;;;;223.87;59.20;;;;;;;;;;5034977;28;20784;-44
2024/03/10 04:33:54;;;;;;;225.32;61.42;;;;;;;;;;5032521;28;20969;-44
2024/03/10 04:36:20;;;;;;;225.83;60.87;;;;;;;;;;5036326;28;20181;-44
2024/03/10 04:38:46;;;;;;;227.43;63.07;;;;;;;;;;5032106;28;20403;-44
2024/03/10 04:41:12;;;;;;;225.37;60.17;;;;;;;;;;5032334;28;20415;-44
2024/03/10 04:43:38;;;;;;;226.40;59.77;;;;;;;;;;5032486;28;20435;-44
2024/03/10 04:46:04;;;;;;;225.25;60.60;;;;;;;;;;5032029;28;20403;-44
2024/03/10 04:48:31;;;;;;;225.07;60.63;;;;;;;;;;5032458;28;20169;-44
2024/03/10 04:50:57;;;;;;;226.00;62.03;;;;;;;;;;5032017;28;20525;-44
2024/03/10 04:53:23;;;;;;;223.77;59.93;;;;;;;;;;5032155;28;20290;-44
2024/03/10 04:55:49;;;;;;;224.07;60.10;;;;;;;;;;5032559;28;20469;-44
2024/03/10 04:58:19;;;;;;;228.75;62.63;;;;;;;;;;5032193;28;20418;-44
2024/03/10 05:00:45;;;;;;;227.30;62.08;;;;;;;;;;5030829;28;20175;-44
2024/03/10 05:03:11;;;;;;;226.07;61.67;;;;;;;;;;5032069;28;20226;-44
2024/03/10 05:05:38;;;;;;;225.95;61.35;;;;;;;;;;5031654;28;20226;-44
2024/03/10 05:08:04;;;;;;;226.02;61.05;;;;;;;;;;5031799;28;20198;-44
2024/03/10 05:10:30;;;;;;;228.32;61.70;;;;;;;;;;5031962;28;20269;-44
2024/03/10 05:12:56;;;;;;;226.47;60.37;;;;;;;;;;5031965;28;20298;-44
2024/03/10 05:15:22;;;;;;;228.10;61.22;;;;;;;;;;5031544;28;21030;-44
2024/03/10 05:17:48;;;;;;;225.32;59.85;;;;;;;;;;5031764;28;20187;-44
2024/03/10 05:20:18;;;;;;;228.50;61.50;;;;;;;;;;5031690;28;20168;-44
2024/03/10 05:22:44;;;;;;;225.73;60.20;;;;;;;;;;5031670;28;20458;-44
2024/03/10 05:25:11;;;;;;;227.10;61.28;;;;;;;;;;5030579;28;20261;-44
2024/03/10 05:27:41;;;;;;;224.48;59.45;;;;;;;;;;5031856;28;20178;-44
2024/03/10 05:30:07;;;;;;;226.20;59.55;;;;;;;;;;5031545;28;20711;-45
2024/03/10 05:32:33;;;;;;;225.10;61.00;;;;;;;;;;5031320;28;20208;-44
2024/03/10 05:34:59;;;;;;;223.02;58.53;;;;;;;;;;5031055;28;20283;-44
2024/03/10 05:37:25;;;;;;;221.33;58.10;;;;;;;;;;5031262;28;20243;-44
2024/03/10 05:39:51;;;;;;;227.00;61.55;;;;;;;;;;5031281;28;20413;-44
2024/03/10 05:42:17;;;;;;;223.90;59.30;;;;;;;;;;5031311;28;20184;-44
2024/03/10 05:44:43;;;;;;;223.87;59.53;;;;;;;;;;5031198;28;20418;-45
2024/03/10 05:47:11;;;;;;;222.50;58.53;;;;;;;;;;5031407;28;20422;-44
2024/03/10 05:49:37;;;;;;;226.13;60.50;;;;;;;;;;5031295;28;20588;-44
2024/03/10 05:52:03;;;;;;;226.00;60.40;;;;;;;;;;5031226;28;20263;-45
2024/03/10 05:54:29;;;;;;;219.15;57.78;;;;;;;;;;5030986;28;20203;-44
2024/03/10 05:56:55;;;;;;;224.07;59.60;;;;;;;;;;5030692;28;20996;-44
2024/03/10 05:59:21;;;;;;;226.20;60.30;;;;;;;;;;5025607;28;20249;-44
2024/03/10 06:01:47;;;;;;;226.70;60.33;;;;;;;;;;5030898;28;20466;-44
2024/03/10 06:04:13;;;;;;;225.90;59.23;;;;;;;;;;5031107;28;20434;-44
2024/03/10 06:06:39;;;;;;;226.13;59.45;;;;;;;;;;5030599;28;20418;-44
2024/03/10 06:09:05;;;;;;;228.02;60.55;;;;;;;;;;5030807;28;20180;-44
2024/03/10 06:11:32;;;;;;;224.50;58.75;;;;;;;;;;5031026;28;20178;-44
2024/03/10 06:13:58;;;;;;;227.18;61.28;;;;;;;;;;5030518;28;20215;-44
2024/03/10 06:16:25;;;;;;;228.05;61.25;;;;;;;;;;5030005;28;20671;-44
2024/03/10 06:25:22;;;;;;;227.02;61.15;;;;;;;;;;5025732;28;20264;-44
2024/03/10 06:27:02;;;;;;;227.48;60.78;;;;;;;;;;5030144;28;20277;-45
2024/03/10 06:29:28;;;;;;;226.60;60.30;;;;;;;;;;5031025;28;20626;-44
2024/03/10 06:31:55;;;;;;;223.63;57.70;;;;;;;;;;5028788;28;20217;-44
2024/03/10 06:34:22;;;;;;;225.43;61.15;;;;;;;;;;5025166;28;20455;-44
2024/03/10 06:36:48;;;;;;;225.57;59.88;;;;;;;;;;5030508;28;20710;-44
2024/03/10 06:39:19;;;;;;;226.47;61.60;;;;;;;;;;5030690;28;20267;-44
2024/03/10 06:41:45;;;;;;;225.93;61.78;;;;;;;;;;5030878;28;20410;-44
2024/03/10 06:44:11;;;;;;;225.25;58.65;;;;;;;;;;5030756;28;20235;-44
2024/03/10 06:46:37;;;;;;;224.77;59.40;;;;;;;;;;5030580;28;20176;-44
2024/03/10 06:49:02;;;;;;;226.33;61.63;;;;;;;;;;5030588;28;20421;-44
2024/03/10 06:51:29;;;;;;;227.87;62.17;;;;;;;;;;5030653;28;20887;-44
2024/03/10 06:53:55;;;;;;;227.00;61.20;;;;;;;;;;5027638;28;20465;-44
2024/03/10 06:56:21;;;;;;;226.57;60.87;;;;;;;;;;5030182;28;20637;-45
2024/03/10 06:58:51;;;;;;;228.82;63.15;;;;;;;;;;5030767;28;20784;-44
2024/03/10 07:01:21;;;;;;;226.57;61.15;;;;;;;;;;5030348;28;20165;-44
2024/03/10 07:03:48;;;;;;;228.55;62.67;;;;;;;;;;5034062;28;20673;-44
2024/03/10 07:06:15;;;;;;;230.73;63.42;;;;;;;;;;5030010;28;20549;-44
2024/03/10 07:08:44;;;;;;;228.25;62.17;;;;;;;;;;5030162;28;20170;-44
2024/03/10 07:11:10;;;;;;;228.88;62.97;;;;;;;;;;5030240;28;20411;-45
2024/03/10 07:13:39;;;;;;;230.00;63.35;;;;;;;;;;5030139;28;20201;-44
2024/03/10 07:16:06;;;;;;;228.05;61.40;;;;;;;;;;5028057;28;20531;-44
2024/03/10 07:18:32;;;;;;;227.93;60.65;;;;;;;;;;5030139;28;20545;-45
2024/03/10 07:20:58;;;;;;;229.32;62.75;;;;;;;;;;5029981;28;20519;-44
2024/03/10 07:23:24;;;;;;;230.98;62.15;;;;;;;;;;5029839;28;20293;-44
2024/03/10 07:25:50;;;;;;;230.93;63.90;;;;;;;;;;5030173;28;20257;-49
2024/03/10 07:28:16;;;;;;;228.48;62.67;;;;;;;;;;5030235;28;20409;-44
2024/03/10 07:30:42;;;;;;;232.43;64.40;;;;;;;;;;5030343;28;20181;-44
2024/03/10 07:33:08;;;;;;;230.07;61.93;;;;;;;;;;5030065;28;20247;-44
2024/03/10 07:35:34;;;;;;;231.87;63.73;;;;;;;;;;5029894;28;20476;-44
2024/03/10 07:38:00;;;;;;;229.97;62.73;;;;;;;;;;5030041;28;20459;-44
2024/03/10 07:40:27;;;;;;;229.50;62.70;;;;;;;;;;5030367;28;20854;-45
2024/03/10 07:42:53;;;;;;;231.07;64.82;;;;;;;;;;5030300;28;20198;-44
2024/03/10 07:45:19;;;;;;;232.85;64.80;;;;;;;;;;5030303;28;20190;-45
2024/03/10 07:47:46;;;;;;;231.35;64.38;;;;;;;;;;5030852;28;20708;-44
2024/03/10 07:50:13;;;;;;;232.43;64.70;;;;;;;;;;5033879;28;20190;-45
2024/03/10 07:52:41;;;;;;;229.80;63.58;;;;;;;;;;5033488;28;20204;-45
2024/03/10 07:55:07;;;;;;;237.18;67.72;;;;;;;;;;5033353;28;20845;-45
2024/03/10 07:57:33;;;;;;;231.98;62.35;;;;;;;;;;5033677;28;20190;-44
2024/03/10 08:00:00;;;;;;;231.07;62.27;;;;;;;;;;5033414;28;20182;-45
2024/03/10 08:02:26;;;;;;;230.43;62.58;;;;;;;;;;5032120;28;20456;-45
2024/03/10 08:04:52;;;;;;;234.95;65.45;;;;;;;;;;5032011;28;20182;-44
2024/03/10 08:07:18;;;;;;;232.57;64.87;;;;;;;;;;5032083;28;20262;-45
2024/03/10 08:09:45;;;;;;;228.07;60.50;;;;;;;;;;5032303;28;20437;-44
2024/03/10 08:12:11;;;;;;;231.52;62.65;;;;;;;;;;5033062;28;20422;-44
2024/03/10 08:14:40;;;;;;;231.38;63.45;;;;;;;;;;5032625;28;20206;-44
2024/03/10 08:17:06;;;;;;;232.77;64.85;;;;;;;;;;5030015;28;20765;-44
2024/03/10 08:19:32;;;;;;;232.70;63.30;;;;;;;;;;5032883;28;20604;-44
2024/03/10 08:21:59;;;;;;;233.10;64.68;;;;;;;;;;5032899;28;20168;-44
2024/03/10 08:24:26;;;;;;;233.07;64.05;;;;;;;;;;5032865;28;20203;-45
2024/03/10 08:26:52;;;;;;;235.88;65.80;;;;;;;;;;5033207;28;20249;-45
2024/03/10 08:29:18;;;;;;;236.23;66.60;;;;;;;;;;5032980;28;20258;-44
2024/03/10 08:31:44;;;;;;;236.60;67.13;;;;;;;;;;5035059;28;20666;-44
2024/03/10 08:34:10;;;;;;;237.10;68.88;;;;;;;;;;5032793;28;20461;-45
2024/03/10 08:36:39;;;;;;;234.52;65.60;;;;;;;;;;5032596;28;20179;-45
2024/03/10 08:39:07;;;;;;;236.75;66.32;;;;;;;;;;5032782;28;20566;-45
2024/03/10 08:41:34;;;;;;;235.18;65.53;;;;;;;;;;5032845;28;20694;-45
2024/03/10 08:44:01;;;;;;;241.70;71.53;;;;;;;;;;5032708;28;20614;-45
2024/03/10 08:46:27;;;;;;;236.05;65.80;;;;;;;;;;5032369;28;20254;-44
2024/03/10 08:48:53;;;;;;;234.60;65.28;;;;;;;;;;5032920;28;20187;-45
2024/03/10 08:51:19;;;;;;;236.98;66.47;;;;;;;;;;5032147;28;20341;-44
2024/03/10 08:53:45;;;;;;;236.90;66.85;;;;;;;;;;5032504;28;20676;-45
2024/03/10 08:56:14;;;;;;;239.23;68.00;;;;;;;;;;5032190;28;20257;-45
2024/03/10 08:58:41;;;;;;;238.00;68.28;;;;;;;;;;5032753;28;20670;-44
2024/03/10 09:01:07;;;;;;;238.30;67.38;;;;;;;;;;5032383;28;20172;-45
2024/03/10 09:03:34;;;;;;;237.00;66.28;;;;;;;;;;5032434;28;20193;-45
2024/03/10 09:06:03;;;;;;;238.43;68.60;;;;;;;;;;5032160;28;20178;-45
2024/03/10 09:08:29;;;;;;;233.80;65.25;;;;;;;;;;5032955;28;20212;-45
2024/03/10 09:10:57;;;;;;;235.88;66.95;;;;;;;;;;5033205;28;20655;-45
2024/03/10 09:13:23;;;;;;;235.73;67.40;;;;;;;;;;5031994;28;20206;-46
2024/03/10 09:15:49;;;;;;;234.93;65.80;;;;;;;;;;5031756;28;20219;-45
2024/03/10 09:18:15;;;;;;;238.10;68.67;;;;;;;;;;5031806;28;20410;-45
2024/03/10 09:20:42;;;;;;;239.03;70.80;;;;;;;;;;5032146;28;20412;-44
2024/03/10 09:23:08;;;;;;;238.45;67.95;;;;;;;;;;5031791;28;20441;-45
2024/03/10 09:25:34;;;;;;;237.17;67.77;;;;;;;;;;5031778;28;20587;-45
2024/03/10 09:28:00;;;;;;;239.98;69.50;;;;;;;;;;5032192;28;20405;-45
2024/03/10 09:30:30;;;;;;;243.65;73.55;;;;;;;;;;5031863;28;20645;-45
2024/03/10 09:32:56;;;;;;;238.05;68.25;;;;;;;;;;5031636;28;20252;-45
2024/03/10 09:35:34;;;;;;;243.10;71.47;;;;;;;;;;5026038;28;20206;-45
2024/03/10 09:38:06;;;;;;;245.82;73.53;;;;;;;;;;5031693;28;20179;-45
2024/03/10 09:40:32;;;;;;;246.18;74.80;;;;;;;;;;5031705;28;20187;-45
2024/03/10 09:43:02;;;;;;;244.32;73.30;;;;;;;;;;5031513;28;20190;-46
2024/03/10 09:45:29;;;;;;;248.87;79.63;;;;;;;;;;5031498;28;20171;-45
2024/03/10 09:47:55;;;;;;;248.73;78.23;;;;;;;;;;5031535;28;20413;-46
2024/03/10 09:50:24;;;;;;;244.90;74.93;;;;;;;;;;5031490;28;20418;-46
2024/03/10 09:52:54;;;;;;;249.23;77.63;;;;;;;;;;5031399;28;20439;-45
2024/03/10 09:55:20;;;;;;;255.37;87.40;;;;;;;;;;5030951;28;20985;-46
2024/03/10 09:57:53;;;;;;;252.90;83.33;;;;;;;;;;5031368;28;20417;-45
2024/03/10 10:00:23;;;;;;;250.80;84.87;;;;;;;;;;5031281;28;20804;-46
2024/03/10 10:02:51;;;;;;;252.43;84.40;;;;;;;;;;5030262;28;20426;-46
2024/03/10 10:05:25;;;;;;;244.77;79.60;;;;;;;;;;5031001;28;20410;-45
2024/03/10 10:07:53;;;;;;;241.00;77.70;;;;;;;;;;5031226;28;20424;-45
2024/03/10 10:10:22;;;;;;;243.40;79.17;;;;;;;;;;5030691;28;20409;-45
2024/03/10 10:12:53;;;;;;;244.33;82.63;;;;;;;;;;5031059;28;20527;-44
2024/03/10 10:15:22;;;;;;;242.97;80.03;;;;;;;;;;5030206;28;21153;-44
2024/03/10 10:17:53;;;;;;;247.10;86.20;;;;;;;;;;5030822;28;20444;-46
2024/03/10 10:20:25;;;;;;;245.57;81.00;;;;;;;;;;5030892;28;20417;-45
2024/03/10 10:22:52;;;;;;;242.87;78.23;;;;;;;;;;5030781;28;20449;-45
2024/03/10 10:25:18;;;;;;;247.57;86.27;;;;;;;;;;5030809;28;20425;-44
2024/03/10 10:27:47;;;;;;;248.70;87.30;;;;;;;;;;5030998;28;20429;-45
2024/03/10 10:30:22;;;;;;;242.80;78.70;;;;;;;;;;5031110;28;20406;-45
2024/03/10 10:32:48;;;;;;;244.30;80.90;;;;;;;;;;5030689;28;20433;-45
2024/03/10 10:35:16;;;;;;;250.53;85.47;;;;;;;;;;5030473;28;20464;-45
2024/03/10 10:37:44;;;;;;;243.43;80.87;;;;;;;;;;5030842;28;20423;-46
2024/03/10 10:40:11;;;;;;;246.80;85.80;;;;;;;;;;5030813;28;20419;-45
2024/03/10 10:42:37;;;;;;;248.63;82.03;;;;;;;;;;5030762;28;20436;-45
2024/03/10 10:45:04;;;;;;;249.97;82.53;;;;;;;;;;5030438;28;20417;-45
2024/03/10 10:47:32;;;;;;;252.37;85.20;;;;;;;;;;5030515;28;20440;-45
2024/03/10 10:49:59;;;;;;;247.73;82.83;;;;;;;;;;5030653;28;20410;-45
2024/03/10 10:52:25;;;;;;;249.50;84.47;;;;;;;;;;5030909;28;20417;-45
2024/03/10 10:54:51;;;;;;;248.47;83.87;;;;;;;;;;5030668;28;20462;-45
2024/03/10 10:57:18;;;;;;;249.87;85.97;;;;;;;;;;5030323;28;20414;-45
2024/03/10 10:59:48;;;;;;;248.20;81.80;;;;;;;;;;5030464;28;20901;-45
2024/03/10 11:02:19;;;;;;;248.10;80.37;;;;;;;;;;5030294;28;20447;-45
2024/03/10 11:04:45;;;;;;;251.57;88.80;;;;;;;;;;5030607;28;20413;-45
2024/03/10 11:07:13;;;;;;;249.47;83.60;;;;;;;;;;5030182;28;20417;-45
2024/03/10 11:09:40;;;;;;;250.30;88.80;;;;;;;;;;5030609;28;20535;-45
2024/03/10 11:12:21;;;;;;;247.67;84.37;;;;;;;;;;5030525;28;20417;-45
2024/03/10 11:14:48;;;;;;;245.50;81.47;;;;;;;;;;5030700;28;20541;-45
2024/03/10 11:17:16;;;;;;;246.30;80.20;;;;;;;;;;5030198;28;20414;-45
2024/03/10 11:19:52;;;;;;;246.27;79.30;;;;;;;;;;5030506;28;20496;-44
2024/03/10 11:22:22;;;;;;;248.53;83.30;;;;;;;;;;5030356;28;21100;-45
2024/03/10 11:25:11;;;;;;;247.43;82.97;;;;;;;;;;5034023;28;20434;-45
2024/03/10 11:27:44;;;;;;;246.00;81.17;;;;;;;;;;5034154;28;20267;-44
2024/03/10 11:30:29;;;;;;;244.60;80.00;;;;;;;;;;5034216;28;20480;-45
2024/03/10 11:33:04;;;;;;;248.23;84.40;;;;;;;;;;5033986;28;20484;-45
2024/03/10 11:35:31;;;;;;;245.87;81.80;;;;;;;;;;5033835;28;20459;-46
2024/03/10 11:38:00;;;;;;;244.37;81.27;;;;;;;;;;5033209;28;20422;-46
2024/03/10 11:40:30;;;;;;;248.63;84.77;;;;;;;;;;5033965;28;20975;-45
2024/03/10 11:42:58;;;;;;;245.57;82.00;;;;;;;;;;5033931;28;20426;-45
2024/03/10 11:45:25;;;;;;;252.40;89.83;;;;;;;;;;5033644;28;20418;-45
2024/03/10 11:47:51;;;;;;;251.60;87.57;;;;;;;;;;5027895;28;20460;-45
2024/03/10 11:50:18;;;;;;;252.63;89.93;;;;;;;;;;5033183;28;20459;-45
2024/03/10 11:52:45;;;;;;;250.57;91.17;;;;;;;;;;5033154;28;20484;-46
2024/03/10 11:55:14;;;;;;;251.97;87.47;;;;;;;;;;5033318;28;20457;-46
2024/03/10 11:57:40;;;;;;;247.77;85.63;;;;;;;;;;5033573;28;20422;-45
2024/03/10 12:00:14;;;;;;;249.17;83.13;;;;;;;;;;5033707;28;20992;-46
2024/03/10 12:02:40;;;;;;;248.20;85.27;;;;;;;;;;5033565;28;20951;-45
2024/03/10 12:05:08;;;;;;;253.30;87.97;;;;;;;;;;5033325;28;20445;-45
2024/03/10 12:07:35;;;;;;;250.83;87.83;;;;;;;;;;5033353;28;20941;-45
2024/03/10 12:10:08;;;;;;;250.67;88.90;;;;;;;;;;5033391;28;20438;-45
2024/03/10 12:12:35;;;;;;;253.57;92.25;;;;;;;;;;5033252;28;21004;-46
2024/03/10 12:15:01;;;;;;;254.37;91.60;;;;;;;;;;5032181;28;20206;-45
2024/03/10 12:17:28;;;;;;;250.43;84.27;;;;;;;;;;5033242;28;20417;-45
2024/03/10 12:19:54;;;;;;;249.60;82.37;;;;;;;;;;5033233;28;20415;-44
2024/03/10 12:22:20;;;;;;;249.57;82.20;;;;;;;;;;5033350;28;20541;-45
2024/03/10 12:24:46;;;;;;;253.53;87.57;;;;;;;;;;5033155;28;20469;-45
2024/03/10 12:27:13;;;;;;;249.77;83.87;;;;;;;;;;5032583;28;20411;-46
2024/03/10 12:29:43;;;;;;;248.77;82.23;;;;;;;;;;5032993;28;20497;-45
2024/03/10 12:32:09;;;;;;;243.38;76.88;;;;;;;;;;5031652;28;20442;-45
2024/03/10 12:34:35;;;;;;;249.07;83.53;;;;;;;;;;5032490;28;20675;-46
2024/03/10 12:37:02;;;;;;;249.07;84.65;;;;;;;;;;5032615;28;20403;-45
2024/03/10 12:39:28;;;;;;;248.13;83.17;;;;;;;;;;5032816;28;20253;-45
2024/03/10 12:41:55;;;;;;;250.27;85.13;;;;;;;;;;5031532;28;20413;-45
2024/03/10 12:44:21;;;;;;;247.30;82.43;;;;;;;;;;5032698;28;20863;-46
2024/03/10 12:46:47;;;;;;;246.27;83.07;;;;;;;;;;5032700;28;20421;-46
2024/03/10 12:49:13;;;;;;;245.27;79.85;;;;;;;;;;5032817;28;20497;-45
2024/03/10 12:51:39;;;;;;;246.17;81.90;;;;;;;;;;5032768;28;20723;-45
2024/03/10 12:54:06;;;;;;;245.67;81.67;;;;;;;;;;5032334;28;20440;-45
2024/03/10 12:56:32;;;;;;;249.73;84.73;;;;;;;;;;5032043;28;20434;-45
2024/03/10 12:58:58;;;;;;;245.17;78.33;;;;;;;;;;5032436;28;20570;-45
2024/03/10 13:01:24;;;;;;;243.67;78.43;;;;;;;;;;5032358;28;20440;-45
2024/03/10 13:03:50;;;;;;;249.07;83.33;;;;;;;;;;5032169;28;20476;-45
2024/03/10 13:06:19;;;;;;;247.87;82.70;;;;;;;;;;5031594;28;21714;-45
2024/03/10 13:08:46;;;;;;;249.68;84.93;;;;;;;;;;5032357;28;20433;-45
2024/03/10 13:11:16;;;;;;;245.77;79.57;;;;;;;;;;5032189;28;20182;-45
2024/03/10 13:13:43;;;;;;;246.37;80.67;;;;;;;;;;5032133;28;20990;-45
2024/03/10 13:16:09;;;;;;;252.40;87.50;;;;;;;;;;5031736;28;20463;-45
2024/03/10 13:18:35;;;;;;;248.55;82.10;;;;;;;;;;5032005;28;20420;-45
2024/03/10 13:21:02;;;;;;;246.30;79.45;;;;;;;;;;5031926;28;20171;-46
2024/03/10 13:23:28;;;;;;;246.77;79.10;;;;;;;;;;5031745;28;20718;-45
2024/03/10 13:25:54;;;;;;;245.77;76.37;;;;;;;;;;5031823;28;20410;-45
2024/03/10 13:28:22;;;;;;;246.47;78.50;;;;;;;;;;5031855;28;20412;-45
2024/03/10 13:30:48;;;;;;;246.97;77.73;;;;;;;;;;5032042;28;20756;-46
2024/03/10 13:33:15;;;;;;;247.60;81.77;;;;;;;;;;5031988;28;20444;-46
2024/03/10 13:35:41;;;;;;;247.77;81.17;;;;;;;;;;5031502;28;20861;-45
2024/03/10 13:38:07;;;;;;;244.40;75.97;;;;;;;;;;5031663;28;20432;-45
2024/03/10 13:40:32;;;;;;;248.53;82.30;;;;;;;;;;5031747;28;20897;-45
2024/03/10 13:42:58;;;;;;;247.33;78.77;;;;;;;;;;5031490;28;20435;-44
2024/03/10 13:45:24;;;;;;;244.67;75.70;;;;;;;;;;5030644;28;20411;-45
2024/03/10 13:47:51;;;;;;;247.63;81.43;;;;;;;;;;5031538;28;20443;-45
2024/03/10 13:50:19;;;;;;;245.17;78.70;;;;;;;;;;5031457;28;21094;-45
2024/03/10 13:52:45;;;;;;;250.18;84.55;;;;;;;;;;5031443;28;20441;-45
2024/03/10 13:55:12;;;;;;;250.38;82.47;;;;;;;;;;5031233;28;20207;-45
2024/03/10 13:57:43;;;;;;;248.65;83.18;;;;;;;;;;5031419;28;20670;-45
2024/03/10 14:00:13;;;;;;;245.67;79.47;;;;;;;;;;5031354;28;20250;-46
2024/03/10 14:02:45;;;;;;;243.67;75.87;;;;;;;;;;5030077;28;20434;-45
2024/03/10 14:05:12;;;;;;;250.77;80.10;;;;;;;;;;5030864;28;20429;-45
2024/03/10 14:07:38;;;;;;;246.38;80.35;;;;;;;;;;5031158;28;20420;-45
2024/03/10 14:10:10;;;;;;;242.95;78.07;;;;;;;;;;5031172;28;20181;-45
2024/03/10 14:12:36;;;;;;;243.98;79.43;;;;;;;;;;5031160;28;20226;-44
2024/03/10 14:15:04;;;;;;;252.67;88.33;;;;;;;;;;5030003;28;20245;-46
2024/03/10 14:17:31;;;;;;;244.52;76.15;;;;;;;;;;5030133;28;20909;-45
2024/03/10 14:19:57;;;;;;;244.60;79.13;;;;;;;;;;5030988;28;20538;-46
2024/03/10 14:22:25;;;;;;;244.53;78.13;;;;;;;;;;5030993;28;20176;-45
2024/03/10 14:24:51;;;;;;;243.77;77.27;;;;;;;;;;5030905;28;20428;-44
2024/03/10 14:27:18;;;;;;;242.00;74.43;;;;;;;;;;5030603;28;21062;-44
2024/03/10 14:29:44;;;;;;;241.75;75.65;;;;;;;;;;5030986;28;20438;-45